createdAt,value
2023-05-12T00:00:51.274Z,0.00
2023-05-12T00:01:51.589Z,0.00
2023-05-12T00:02:51.960Z,0.00
2023-05-12T00:03:52.514Z,0.00
2023-05-12T00:04:52.605Z,0.00
2023-05-12T00:05:52.763Z,0.00
2023-05-12T00:06:53.031Z,0.00
2023-05-12T00:07:53.396Z,0.00
2023-05-12T00:08:53.743Z,0.00
2023-05-12T00:09:53.918Z,0.00
2023-05-12T00:10:54.158Z,0.00
2023-05-12T00:11:54.497Z,0.00
2023-05-12T00:12:54.816Z,0.00
2023-05-12T00:13:55.250Z,0.00
2023-05-12T00:14:55.389Z,0.00
2023-05-12T00:15:55.851Z,0.00
2023-05-12T00:16:55.957Z,0.00
2023-05-12T00:17:56.250Z,0.00
2023-05-12T00:18:56.589Z,0.00
2023-05-12T00:19:57.293Z,0.00
2023-05-12T00:20:57.096Z,0.00
2023-05-12T00:21:57.392Z,0.00
2023-05-12T00:22:57.635Z,0.00
2023-05-12T00:23:57.942Z,0.00
2023-05-12T00:24:58.283Z,1.00
2023-05-12T00:25:58.413Z,0.00
2023-05-12T00:26:58.734Z,0.00
2023-05-12T00:27:59.064Z,0.00
2023-05-12T00:28:59.304Z,0.00
2023-05-12T00:29:59.663Z,0.00
2023-05-12T00:30:59.846Z,1.00
2023-05-12T00:32:00.294Z,0.00
2023-05-12T00:33:00.581Z,0.00
2023-05-12T00:34:00.898Z,0.00
2023-05-12T00:35:02.009Z,0.00
2023-05-12T00:36:01.437Z,0.00
2023-05-12T00:37:01.775Z,0.00
2023-05-12T00:38:02.101Z,0.00
2023-05-12T00:39:02.446Z,0.00
2023-05-12T00:40:02.713Z,0.00
2023-05-12T00:41:03.051Z,0.00
2023-05-12T00:42:03.355Z,0.00
2023-05-12T00:43:03.700Z,0.00
2023-05-12T00:44:03.969Z,0.00
2023-05-12T00:45:04.240Z,0.00
2023-05-12T00:46:04.607Z,0.00
2023-05-12T00:47:04.970Z,0.00
2023-05-12T00:48:05.343Z,0.00
2023-05-12T00:49:05.484Z,0.00
2023-05-12T00:50:05.799Z,0.00
2023-05-12T00:51:06.060Z,0.00
2023-05-12T00:52:06.352Z,0.00
2023-05-12T00:53:06.723Z,0.00
2023-05-12T00:54:06.991Z,0.00
2023-05-12T00:55:07.272Z,0.00
2023-05-12T00:56:07.585Z,0.00
2023-05-12T00:57:07.812Z,0.00
2023-05-12T00:58:08.139Z,0.00
2023-05-12T00:59:08.533Z,0.00
2023-05-12T01:00:08.851Z,0.00
2023-05-12T01:01:09.180Z,0.00
2023-05-12T01:02:09.502Z,0.00
2023-05-12T01:03:09.802Z,0.00
2023-05-12T01:04:10.018Z,0.00
2023-05-12T01:05:10.321Z,0.00
2023-05-12T01:06:10.550Z,0.00
2023-05-12T01:07:10.852Z,0.00
2023-05-12T01:08:11.133Z,0.00
2023-05-12T01:09:11.599Z,0.00
2023-05-12T01:10:11.732Z,0.00
2023-05-12T01:11:12.043Z,0.00
2023-05-12T01:12:12.305Z,0.00
2023-05-12T01:13:12.549Z,0.00
2023-05-12T01:14:13.703Z,0.00
2023-05-12T01:15:13.202Z,0.00
2023-05-12T01:16:13.499Z,0.00
2023-05-12T01:17:13.925Z,0.00
2023-05-12T01:18:14.099Z,0.00
2023-05-12T01:19:14.421Z,0.00
2023-05-12T01:20:14.681Z,0.00
2023-05-12T01:21:15.000Z,0.00
2023-05-12T01:22:15.292Z,0.00
2023-05-12T01:23:16.464Z,0.00
2023-05-12T01:24:15.914Z,0.00
2023-05-12T01:25:16.214Z,0.00
2023-05-12T01:26:16.504Z,0.00
2023-05-12T01:27:16.824Z,0.00
2023-05-12T01:28:17.117Z,0.00
2023-05-12T01:29:17.391Z,0.00
2023-05-12T01:30:18.099Z,0.00
2023-05-12T01:31:20.241Z,0.00
2023-05-12T01:32:18.348Z,0.00
2023-05-12T01:33:18.577Z,0.00
2023-05-12T01:34:18.959Z,0.00
2023-05-12T01:35:19.113Z,0.00
2023-05-12T01:36:19.431Z,0.00
2023-05-12T01:37:19.717Z,0.00
2023-05-12T01:38:20.029Z,1.00
2023-05-12T01:39:20.315Z,0.00
2023-05-12T01:40:20.929Z,0.00
2023-05-12T01:41:20.887Z,0.00
2023-05-12T01:42:21.197Z,1.00
2023-05-12T01:43:22.278Z,0.00
2023-05-12T01:44:21.876Z,0.00
2023-05-12T01:45:22.151Z,0.00
2023-05-12T01:46:22.492Z,0.00
2023-05-12T01:47:22.876Z,0.00
2023-05-12T01:48:23.111Z,0.00
2023-05-12T01:49:23.362Z,0.00
2023-05-12T01:50:23.730Z,0.00
2023-05-12T01:51:24.006Z,0.00
2023-05-12T01:52:28.518Z,0.00
2023-05-12T01:53:24.620Z,0.00
2023-05-12T01:54:24.951Z,0.00
2023-05-12T01:55:25.327Z,0.00
2023-05-12T01:56:25.588Z,0.00
2023-05-12T01:57:25.892Z,0.00
2023-05-12T01:58:26.300Z,0.00
2023-05-12T01:59:26.682Z,0.00
2023-05-12T02:00:26.796Z,0.00
2023-05-12T02:01:27.134Z,0.00
2023-05-12T02:02:27.552Z,0.00
2023-05-12T02:03:27.724Z,0.00
2023-05-12T02:04:28.041Z,0.00
2023-05-12T02:05:28.342Z,0.00
2023-05-12T02:06:28.640Z,0.00
2023-05-12T02:07:29.042Z,0.00
2023-05-12T02:08:29.248Z,0.00
2023-05-12T02:09:29.665Z,0.00
2023-05-12T02:10:29.866Z,0.00
2023-05-12T02:11:30.132Z,0.00
2023-05-12T02:12:30.549Z,0.00
2023-05-12T02:13:30.692Z,0.00
2023-05-12T02:14:30.993Z,0.00
2023-05-12T02:15:31.236Z,1.00
2023-05-12T02:16:31.572Z,0.00
2023-05-12T02:17:31.872Z,0.00
2023-05-12T02:18:32.253Z,0.00
2023-05-12T02:19:32.354Z,0.00
2023-05-12T02:20:32.692Z,0.00
2023-05-12T02:21:33.026Z,0.00
2023-05-12T02:22:33.360Z,0.00
2023-05-12T02:23:33.637Z,0.00
2023-05-12T02:24:34.016Z,0.00
2023-05-12T02:25:34.305Z,0.00
2023-05-12T02:26:34.622Z,0.00
2023-05-12T02:27:34.894Z,0.00
2023-05-12T02:28:35.312Z,0.00
2023-05-12T02:29:35.463Z,0.00
2023-05-12T02:30:35.798Z,0.00
2023-05-12T02:31:36.090Z,0.00
2023-05-12T02:32:36.442Z,0.00
2023-05-12T02:33:36.697Z,0.00
2023-05-12T02:34:36.976Z,0.00
2023-05-12T02:35:37.274Z,0.00
2023-05-12T02:36:37.614Z,0.00
2023-05-12T02:37:37.905Z,0.00
2023-05-12T02:38:38.216Z,0.00
2023-05-12T02:39:38.540Z,0.00
2023-05-12T02:40:38.790Z,0.00
2023-05-12T02:41:39.139Z,0.00
2023-05-12T02:42:39.559Z,0.00
2023-05-12T02:43:39.631Z,0.00
2023-05-12T02:44:39.774Z,0.00
2023-05-12T02:45:40.188Z,0.00
2023-05-12T02:46:40.406Z,0.00
2023-05-12T02:47:40.753Z,0.00
2023-05-12T02:48:41.048Z,0.00
2023-05-12T02:49:41.415Z,0.00
2023-05-12T02:50:41.649Z,0.00
2023-05-12T02:51:41.914Z,0.00
2023-05-12T02:52:42.346Z,0.00
2023-05-12T02:53:42.474Z,0.00
2023-05-12T02:54:42.747Z,1.00
2023-05-12T02:55:43.081Z,0.00
2023-05-12T02:56:43.362Z,1.00
2023-05-12T02:57:43.630Z,0.00
2023-05-12T02:58:43.955Z,0.00
2023-05-12T02:59:44.273Z,0.00
2023-05-12T03:00:44.557Z,0.00
2023-05-12T03:01:44.900Z,0.00
2023-05-12T03:02:45.317Z,0.00
2023-05-12T03:03:45.680Z,0.00
2023-05-12T03:04:45.819Z,0.00
2023-05-12T03:05:46.212Z,0.00
2023-05-12T03:06:46.458Z,0.00
2023-05-12T03:07:46.805Z,0.00
2023-05-12T03:08:47.055Z,0.00
2023-05-12T03:09:47.411Z,0.00
2023-05-12T03:10:47.680Z,0.00
2023-05-12T03:11:48.019Z,0.00
2023-05-12T03:12:48.218Z,1.00
2023-05-12T03:13:48.520Z,0.00
2023-05-12T03:14:48.879Z,0.00
2023-05-12T03:15:49.207Z,0.00
2023-05-12T03:16:49.528Z,0.00
2023-05-12T03:17:49.718Z,1.00
2023-05-12T03:18:50.000Z,0.00
2023-05-12T03:19:50.249Z,1.00
2023-05-12T03:20:50.459Z,1.00
2023-05-12T03:21:51.809Z,1.00
2023-05-12T03:22:51.128Z,1.00
2023-05-12T03:23:51.581Z,0.00
2023-05-12T03:24:51.974Z,0.00
2023-05-12T03:25:52.031Z,2.00
2023-05-12T03:26:52.375Z,2.00
2023-05-12T03:27:52.682Z,1.00
2023-05-12T03:28:52.998Z,1.00
2023-05-12T03:29:53.232Z,3.00
2023-05-12T03:30:53.590Z,2.00
2023-05-12T03:31:53.800Z,2.00
2023-05-12T03:32:54.111Z,1.00
2023-05-12T03:33:54.429Z,7.00
2023-05-12T03:34:54.778Z,8.00
2023-05-12T03:35:54.994Z,9.00
2023-05-12T03:36:55.357Z,9.00
2023-05-12T03:37:55.552Z,10.00
2023-05-12T03:38:55.892Z,8.00
2023-05-12T03:39:56.297Z,9.00
2023-05-12T03:40:56.494Z,9.00
2023-05-12T03:41:56.729Z,10.00
2023-05-12T03:42:56.980Z,11.00
2023-05-12T03:43:57.205Z,7.00
2023-05-12T03:44:57.563Z,11.00
2023-05-12T03:45:57.974Z,14.00
2023-05-12T03:46:58.333Z,14.00
2023-05-12T03:47:58.449Z,18.00
2023-05-12T03:48:58.834Z,17.00
2023-05-12T03:49:58.840Z,22.00
2023-05-12T03:50:59.219Z,26.00
2023-05-12T03:51:59.399Z,26.00
2023-05-12T03:52:59.718Z,25.00
2023-05-12T03:54:00.081Z,30.00
2023-05-12T03:55:00.403Z,29.00
2023-05-12T03:56:00.621Z,32.00
2023-05-12T03:57:01.354Z,35.00
2023-05-12T03:58:01.267Z,37.00
2023-05-12T03:59:01.684Z,44.00
2023-05-12T04:00:01.931Z,50.00
2023-05-12T04:01:02.149Z,49.00
2023-05-12T04:02:02.393Z,58.00
2023-05-12T04:03:02.731Z,61.00
2023-05-12T04:04:03.101Z,57.00
2023-05-12T04:05:03.397Z,68.00
2023-05-12T04:06:03.639Z,73.00
2023-05-12T04:07:03.843Z,69.00
2023-05-12T04:08:04.228Z,81.00
2023-05-12T04:09:04.464Z,85.00
2023-05-12T04:10:04.686Z,85.00
2023-05-12T04:11:05.045Z,96.00
2023-05-12T04:12:05.338Z,98.00
2023-05-12T04:13:05.748Z,100.00
2023-05-12T04:14:05.998Z,104.00
2023-05-12T04:15:06.261Z,104.00
2023-05-12T04:16:06.524Z,99.00
2023-05-12T04:17:06.713Z,104.00
2023-05-12T04:18:06.973Z,104.00
2023-05-12T04:19:07.230Z,106.00
2023-05-12T04:20:07.565Z,103.00
2023-05-12T04:21:07.733Z,111.00
2023-05-12T04:22:07.934Z,120.00
2023-05-12T04:23:08.287Z,122.00
2023-05-12T04:24:08.473Z,127.00
2023-05-12T04:25:08.874Z,134.00
2023-05-12T04:26:09.067Z,143.00
2023-05-12T04:27:09.440Z,150.00
2023-05-12T04:28:11.791Z,162.00
2023-05-12T04:29:10.002Z,179.00
2023-05-12T04:30:10.283Z,188.00
2023-05-12T04:31:10.565Z,197.00
2023-05-12T04:32:10.908Z,198.00
2023-05-12T04:33:11.114Z,203.00
2023-05-12T04:34:11.338Z,206.00
2023-05-12T04:35:11.553Z,211.00
2023-05-12T04:36:11.941Z,217.00
2023-05-12T04:37:12.177Z,228.00
2023-05-12T04:38:12.521Z,233.00
2023-05-12T04:39:12.925Z,239.00
2023-05-12T04:40:13.141Z,244.00
2023-05-12T04:41:13.348Z,249.00
2023-05-12T04:42:13.700Z,258.00
2023-05-12T04:44:14.241Z,258.00
2023-05-12T04:45:14.583Z,256.00
2023-05-12T04:46:14.941Z,247.00
2023-05-12T04:47:15.089Z,231.00
2023-05-12T04:48:15.318Z,219.00
2023-05-12T04:49:15.672Z,221.00
2023-05-12T04:50:16.071Z,220.00
2023-05-12T04:51:16.207Z,226.00
2023-05-12T04:52:16.418Z,235.00
2023-05-12T04:53:17.142Z,238.00
2023-05-12T04:54:17.039Z,242.00
2023-05-12T04:55:17.434Z,252.00
2023-05-12T04:56:17.757Z,257.00
2023-05-12T04:57:17.942Z,255.00
2023-05-12T04:58:18.170Z,267.00
2023-05-12T04:59:18.444Z,285.00
2023-05-12T05:00:18.655Z,298.00
2023-05-12T05:01:19.000Z,321.00
2023-05-12T05:02:19.481Z,314.00
2023-05-12T05:03:19.806Z,323.00
2023-05-12T05:04:19.954Z,317.00
2023-05-12T05:05:20.455Z,326.00
2023-05-12T05:06:20.701Z,325.00
2023-05-12T05:07:20.904Z,330.00
2023-05-12T05:08:21.129Z,335.00
2023-05-12T05:09:21.459Z,342.00
2023-05-12T05:10:21.714Z,348.00
2023-05-12T05:11:22.035Z,346.00
2023-05-12T05:12:22.205Z,358.00
2023-05-12T05:13:22.539Z,366.00
2023-05-12T05:14:22.885Z,372.00
2023-05-12T05:15:23.126Z,367.00
2023-05-12T05:16:23.514Z,372.00
2023-05-12T05:17:23.625Z,387.00
2023-05-12T05:18:24.570Z,389.00
2023-05-12T05:19:35.569Z,410.00
2023-05-12T05:20:28.916Z,416.00
2023-05-12T05:21:24.643Z,435.00
2023-05-12T05:22:25.061Z,457.00
2023-05-12T05:23:25.228Z,478.00
2023-05-12T05:24:25.584Z,477.00
2023-05-12T05:25:25.812Z,478.00
2023-05-12T05:26:26.492Z,486.00
2023-05-12T05:27:26.501Z,493.00
2023-05-12T05:28:26.806Z,531.00
2023-05-12T05:29:27.013Z,570.00
2023-05-12T05:30:27.277Z,598.00
2023-05-12T05:31:28.006Z,620.00
2023-05-12T05:32:27.809Z,651.00
2023-05-12T05:33:28.073Z,661.00
2023-05-12T05:34:28.466Z,668.00
2023-05-12T05:35:28.580Z,677.00
2023-05-12T05:36:31.412Z,682.00
2023-05-12T05:37:29.258Z,663.00
2023-05-12T05:38:29.652Z,685.00
2023-05-12T05:39:29.685Z,717.00
2023-05-12T05:40:38.575Z,721.00
2023-05-12T05:41:31.337Z,713.00
2023-05-12T05:42:30.767Z,717.00
2023-05-12T05:43:30.969Z,705.00
2023-05-12T05:44:31.345Z,703.00
2023-05-12T05:45:31.619Z,692.00
2023-05-12T05:46:31.951Z,688.00
2023-05-12T05:47:32.236Z,684.00
2023-05-12T05:48:32.417Z,691.00
2023-05-12T05:49:32.667Z,684.00
2023-05-12T05:50:32.983Z,693.00
2023-05-12T05:51:33.236Z,684.00
2023-05-12T05:52:33.469Z,683.00
2023-05-12T05:53:33.671Z,696.00
2023-05-12T05:54:34.072Z,657.00
2023-05-12T05:55:34.385Z,687.00
2023-05-12T05:56:34.605Z,673.00
2023-05-12T05:57:34.921Z,667.00
2023-05-12T05:58:35.105Z,672.00
2023-05-12T05:59:35.585Z,654.00
2023-05-12T06:00:35.737Z,628.00
2023-05-12T06:01:36.233Z,624.00
2023-05-12T06:02:36.442Z,610.00
2023-05-12T06:03:36.844Z,607.00
2023-05-12T06:04:36.964Z,585.00
2023-05-12T06:05:37.223Z,596.00
2023-05-12T06:06:37.470Z,591.00
2023-05-12T06:07:37.729Z,591.00
2023-05-12T06:08:38.233Z,555.00
2023-05-12T06:09:38.333Z,525.00
2023-05-12T06:10:38.564Z,512.00
2023-05-12T06:11:38.890Z,515.00
2023-05-12T06:12:39.100Z,503.00
2023-05-12T06:13:39.505Z,502.00
2023-05-12T06:14:39.702Z,478.00
2023-05-12T06:15:39.907Z,466.00
2023-05-12T06:16:40.303Z,457.00
2023-05-12T06:17:40.522Z,475.00
2023-05-12T06:18:40.738Z,495.00
2023-05-12T06:19:41.026Z,526.00
2023-05-12T06:20:41.322Z,577.00
2023-05-12T06:21:41.542Z,617.00
2023-05-12T06:22:41.765Z,669.00
2023-05-12T06:23:42.023Z,669.00
2023-05-12T06:24:42.234Z,661.00
2023-05-12T06:25:42.668Z,615.00
2023-05-12T06:26:42.865Z,580.00
2023-05-12T06:27:43.265Z,587.00
2023-05-12T06:28:43.552Z,583.00
2023-05-12T06:29:43.786Z,608.00
2023-05-12T06:30:44.066Z,625.00
2023-05-12T06:31:44.425Z,633.00
2023-05-12T06:32:45.592Z,644.00
2023-05-12T06:33:44.941Z,647.00
2023-05-12T06:34:45.268Z,652.00
2023-05-12T06:35:45.491Z,655.00
2023-05-12T06:36:45.722Z,633.00
2023-05-12T06:37:46.060Z,648.00
2023-05-12T06:38:46.283Z,612.00
2023-05-12T06:39:46.728Z,600.00
2023-05-12T06:40:46.964Z,586.00
2023-05-12T06:41:47.233Z,644.00
2023-05-12T06:42:47.533Z,736.00
2023-05-12T06:43:47.861Z,790.00
2023-05-12T06:44:48.071Z,872.00
2023-05-12T06:45:49.326Z,920.00
2023-05-12T06:46:48.739Z,977.00
2023-05-12T06:47:49.177Z,1012.00
2023-05-12T06:48:49.153Z,1050.00
2023-05-12T06:49:49.424Z,1105.00
2023-05-12T06:50:50.261Z,1083.00
2023-05-12T06:51:49.930Z,1037.00
2023-05-12T06:52:50.273Z,988.00
2023-05-12T06:53:50.486Z,976.00
2023-05-12T06:54:50.774Z,983.00
2023-05-12T06:55:51.105Z,995.00
2023-05-12T06:56:51.308Z,1017.00
2023-05-12T06:57:51.804Z,1033.00
2023-05-12T06:58:51.863Z,1074.00
2023-05-12T06:59:52.191Z,1044.00
2023-05-12T07:00:52.904Z,1003.00
2023-05-12T07:01:52.828Z,910.00
2023-05-12T07:02:53.036Z,836.00
2023-05-12T07:03:53.332Z,810.00
2023-05-12T07:04:53.532Z,792.00
2023-05-12T07:05:53.949Z,774.00
2023-05-12T07:06:54.161Z,737.00
2023-05-12T07:07:54.565Z,682.00
2023-05-12T07:08:54.898Z,668.00
2023-05-12T07:09:55.088Z,696.00
2023-05-12T07:10:55.291Z,731.00
2023-05-12T07:11:55.528Z,781.00
2023-05-12T07:12:55.832Z,868.00
2023-05-12T07:13:56.111Z,925.00
2023-05-12T07:14:56.314Z,994.00
2023-05-12T07:15:56.754Z,1080.00
2023-05-12T07:16:56.916Z,1166.00
2023-05-12T07:17:57.174Z,1273.00
2023-05-12T07:18:57.496Z,1253.00
2023-05-12T07:19:57.740Z,1229.00
2023-05-12T07:20:58.040Z,1168.00
2023-05-12T07:21:58.347Z,1075.00
2023-05-12T07:22:58.561Z,1072.00
2023-05-12T07:23:58.986Z,1040.00
2023-05-12T07:24:59.099Z,953.00
2023-05-12T07:25:59.337Z,876.00
2023-05-12T07:26:59.614Z,886.00
2023-05-12T07:27:59.847Z,804.00
2023-05-12T07:29:00.109Z,676.00
2023-05-12T07:30:00.541Z,667.00
2023-05-12T07:31:00.655Z,839.00
2023-05-12T07:32:00.825Z,992.00
2023-05-12T07:33:01.446Z,1039.00
2023-05-12T07:34:01.559Z,958.00
2023-05-12T07:35:01.737Z,793.00
2023-05-12T07:36:02.168Z,743.00
2023-05-12T07:37:02.381Z,722.00
2023-05-12T07:38:02.665Z,790.00
2023-05-12T07:39:02.870Z,943.00
2023-05-12T07:40:03.227Z,901.00
2023-05-12T07:41:03.421Z,758.00
2023-05-12T07:42:03.813Z,658.00
2023-05-12T07:43:04.014Z,702.00
2023-05-12T07:44:04.412Z,703.00
2023-05-12T07:45:04.580Z,797.00
2023-05-12T07:46:04.953Z,852.00
2023-05-12T07:47:05.354Z,972.00
2023-05-12T07:48:05.476Z,1031.00
2023-05-12T07:49:05.955Z,1144.00
2023-05-12T07:50:06.040Z,1140.00
2023-05-12T07:51:06.232Z,1117.00
2023-05-12T07:52:06.550Z,988.00
2023-05-12T07:53:06.724Z,904.00
2023-05-12T07:54:07.067Z,781.00
2023-05-12T07:55:07.325Z,718.00
2023-05-12T07:56:07.531Z,676.00
2023-05-12T07:57:07.880Z,645.00
2023-05-12T07:58:08.169Z,710.00
2023-05-12T07:59:08.370Z,768.00
2023-05-12T08:00:08.704Z,763.00
2023-05-12T08:01:08.926Z,747.00
2023-05-12T08:02:09.186Z,647.00
2023-05-12T08:03:09.543Z,583.00
2023-05-12T08:04:09.802Z,578.00
2023-05-12T08:05:10.173Z,551.00
2023-05-12T08:06:10.338Z,502.00
2023-05-12T08:07:10.634Z,512.00
2023-05-12T08:08:10.984Z,596.00
2023-05-12T08:09:11.191Z,730.00
2023-05-12T08:10:11.602Z,838.00
2023-05-12T08:11:11.826Z,893.00
2023-05-12T08:12:12.121Z,972.00
2023-05-12T08:13:12.310Z,1071.00
2023-05-12T08:14:13.460Z,1031.00
2023-05-12T08:15:12.941Z,924.00
2023-05-12T08:16:13.133Z,744.00
2023-05-12T08:17:13.707Z,604.00
2023-05-12T08:18:13.726Z,534.00
2023-05-12T08:19:14.122Z,514.00
2023-05-12T08:20:14.315Z,514.00
2023-05-12T08:21:15.026Z,618.00
2023-05-12T08:22:14.796Z,743.00
2023-05-12T08:23:15.152Z,868.00
2023-05-12T08:24:15.454Z,939.00
2023-05-12T08:25:16.723Z,926.00
2023-05-12T08:26:16.055Z,867.00
2023-05-12T08:27:16.473Z,896.00
2023-05-12T08:28:16.711Z,982.00
2023-05-12T08:29:16.933Z,1017.00
2023-05-12T08:30:17.106Z,1078.00
2023-05-12T08:31:17.469Z,1092.00
2023-05-12T08:32:17.740Z,1303.00
2023-05-12T08:33:18.110Z,1740.00
2023-05-12T08:34:18.314Z,2101.00
2023-05-12T08:35:18.827Z,2236.00
2023-05-12T08:36:18.828Z,2169.00
2023-05-12T08:37:19.296Z,2096.00
2023-05-12T08:38:19.464Z,2105.00
2023-05-12T08:39:19.709Z,2094.00
2023-05-12T08:40:19.989Z,2185.00
2023-05-12T08:41:20.299Z,2103.00
2023-05-12T08:42:21.378Z,2036.00
2023-05-12T08:43:20.808Z,2049.00
2023-05-12T08:44:21.180Z,2115.00
2023-05-12T08:45:22.351Z,2293.00
2023-05-12T08:46:21.823Z,2337.00
2023-05-12T08:47:21.851Z,2495.00
2023-05-12T08:48:22.217Z,2531.00
2023-05-12T08:49:22.530Z,2570.00
2023-05-12T08:50:22.807Z,2568.00
2023-05-12T08:51:23.061Z,2527.00
2023-05-12T08:52:23.376Z,2365.00
2023-05-12T08:53:23.580Z,2496.00
2023-05-12T08:54:23.877Z,2594.00
2023-05-12T08:55:28.530Z,2536.00
2023-05-12T08:57:26.367Z,2295.00
2023-05-12T08:58:33.953Z,2206.00
2023-05-12T08:59:26.429Z,2131.00
2023-05-12T09:00:25.761Z,1912.00
2023-05-12T09:01:25.982Z,1913.00
2023-05-12T09:02:26.239Z,1898.00
2023-05-12T09:03:27.363Z,1911.00
2023-05-12T09:04:26.820Z,1833.00
2023-05-12T09:05:27.353Z,1835.00
2023-05-12T09:06:27.243Z,1700.00
2023-05-12T09:07:27.439Z,1942.00
2023-05-12T09:08:27.812Z,1884.00
2023-05-12T09:09:28.110Z,1786.00
2023-05-12T09:11:28.649Z,1759.00
2023-05-12T09:12:28.848Z,1967.00
2023-05-12T09:13:30.097Z,2126.00
2023-05-12T09:14:29.483Z,2283.00
2023-05-12T09:15:29.694Z,2133.00
2023-05-12T09:16:29.970Z,1809.00
2023-05-12T09:17:30.270Z,1492.00
2023-05-12T09:18:30.469Z,1290.00
2023-05-12T09:19:30.852Z,1314.00
2023-05-12T09:20:32.095Z,1329.00
2023-05-12T09:21:31.296Z,1387.00
2023-05-12T09:22:31.513Z,1333.00
2023-05-12T09:23:31.886Z,1379.00
2023-05-12T09:24:32.099Z,1471.00
2023-05-12T09:25:32.322Z,1407.00
2023-05-12T09:26:32.660Z,1406.00
2023-05-12T09:27:33.032Z,1449.00
2023-05-12T09:28:33.295Z,1376.00
2023-05-12T09:29:35.859Z,1400.00
2023-05-12T09:30:34.762Z,1332.00
2023-05-12T09:31:34.097Z,1250.00
2023-05-12T09:32:34.366Z,1212.00
2023-05-12T09:33:34.583Z,1159.00
2023-05-12T09:34:34.845Z,1004.00
2023-05-12T09:35:35.106Z,977.00
2023-05-12T09:36:35.379Z,856.00
2023-05-12T09:37:35.653Z,812.00
2023-05-12T09:38:35.842Z,884.00
2023-05-12T09:39:36.319Z,1068.00
2023-05-12T09:40:36.511Z,1287.00
2023-05-12T09:41:36.924Z,1470.00
2023-05-12T09:42:37.171Z,1422.00
2023-05-12T09:43:37.428Z,1583.00
2023-05-12T09:44:37.707Z,1601.00
2023-05-12T09:45:38.084Z,1704.00
2023-05-12T09:46:38.404Z,1630.00
2023-05-12T09:47:38.602Z,1254.00
2023-05-12T09:48:38.937Z,1131.00
2023-05-12T09:49:39.173Z,1418.00
2023-05-12T09:50:47.168Z,1683.00
2023-05-12T09:51:40.689Z,1761.00
2023-05-12T09:52:39.982Z,1824.00
2023-05-12T09:53:40.258Z,1694.00
2023-05-12T09:54:40.500Z,1494.00
2023-05-12T09:55:48.216Z,1477.00
2023-05-12T09:56:41.121Z,1387.00
2023-05-12T09:57:41.285Z,1278.00
2023-05-12T09:58:41.666Z,1374.00
2023-05-12T09:59:43.672Z,1544.00
2023-05-12T10:01:02.332Z,1472.00
2023-05-12T10:01:43.523Z,1364.00
2023-05-12T10:02:43.029Z,1366.00
2023-05-12T10:03:43.018Z,1566.00
2023-05-12T10:04:43.539Z,1795.00
2023-05-12T10:05:43.679Z,1864.00
2023-05-12T10:06:43.953Z,1903.00
2023-05-12T10:07:44.269Z,2254.00
2023-05-12T10:08:45.399Z,2229.00
2023-05-12T10:09:44.786Z,2576.00
2023-05-12T10:10:45.003Z,2676.00
2023-05-12T10:11:45.378Z,2815.00
2023-05-12T10:12:45.724Z,2922.00
2023-05-12T10:13:45.950Z,3216.00
2023-05-12T10:14:46.364Z,3300.00
2023-05-12T10:15:52.715Z,3059.00
2023-05-12T10:16:46.822Z,2749.00
2023-05-12T10:17:47.309Z,2991.00
2023-05-12T10:18:47.441Z,3051.00
2023-05-12T10:19:47.673Z,3062.00
2023-05-12T10:20:47.920Z,3009.00
2023-05-12T10:21:48.149Z,3018.00
2023-05-12T10:22:48.474Z,3268.00
2023-05-12T10:23:48.660Z,3486.00
2023-05-12T10:24:48.877Z,3603.00
2023-05-12T10:25:49.183Z,4689.00
2023-05-12T10:26:49.575Z,4225.00
2023-05-12T10:27:49.693Z,4508.00
2023-05-12T10:28:50.058Z,3860.00
2023-05-12T10:29:51.461Z,4792.00
2023-05-12T10:30:50.663Z,4177.00
2023-05-12T10:31:51.063Z,3887.00
2023-05-12T10:32:51.155Z,3577.00
2023-05-12T10:33:51.531Z,3334.00
2023-05-12T10:34:56.059Z,4193.00
2023-05-12T10:35:52.040Z,5032.00
2023-05-12T10:36:52.373Z,3287.00
2023-05-12T10:37:52.569Z,2730.00
2023-05-12T10:38:52.821Z,2667.00
2023-05-12T10:39:53.166Z,2474.00
2023-05-12T10:40:53.361Z,2283.00
2023-05-12T10:41:53.764Z,2059.00
2023-05-12T10:42:53.933Z,1621.00
2023-05-12T10:43:54.315Z,1305.00
2023-05-12T10:44:54.503Z,1110.00
2023-05-12T10:45:54.957Z,999.00
2023-05-12T10:46:55.082Z,891.00
2023-05-12T10:47:55.508Z,909.00
2023-05-12T10:48:55.619Z,812.00
2023-05-12T10:49:56.871Z,714.00
2023-05-12T10:50:56.979Z,653.00
2023-05-12T10:51:56.435Z,747.00
2023-05-12T10:52:56.672Z,934.00
2023-05-12T10:53:56.988Z,1282.00
2023-05-12T10:54:57.383Z,1826.00
2023-05-12T10:55:57.855Z,2235.00
2023-05-12T10:56:58.068Z,2448.00
2023-05-12T10:57:58.647Z,2455.00
2023-05-12T10:58:58.837Z,2393.00
2023-05-12T10:59:59.643Z,2319.00
2023-05-12T11:00:59.610Z,2312.00
2023-05-12T11:02:00.336Z,2195.00
2023-05-12T11:03:04.250Z,1777.00
2023-05-12T11:04:01.254Z,1340.00
2023-05-12T11:05:00.506Z,1185.00
2023-05-12T11:06:01.138Z,1003.00
2023-05-12T11:07:01.402Z,852.00
2023-05-12T11:08:02.472Z,739.00
2023-05-12T11:09:01.780Z,642.00
2023-05-12T11:10:02.149Z,621.00
2023-05-12T11:11:03.139Z,611.00
2023-05-12T11:12:02.905Z,582.00
2023-05-12T11:13:02.507Z,616.00
2023-05-12T11:14:02.815Z,715.00
2023-05-12T11:15:03.021Z,852.00
2023-05-12T11:16:03.389Z,986.00
2023-05-12T11:17:03.583Z,1249.00
2023-05-12T11:18:03.852Z,1664.00
2023-05-12T11:19:04.181Z,2110.00
2023-05-12T11:20:04.415Z,2635.00
2023-05-12T11:21:04.666Z,3267.00
2023-05-12T11:22:04.895Z,4319.00
2023-05-12T11:23:05.239Z,3740.00
2023-05-12T11:24:05.535Z,4102.00
2023-05-12T11:25:05.784Z,4290.00
2023-05-12T11:26:06.141Z,4499.00
2023-05-12T11:27:06.408Z,7816.00
2023-05-12T11:28:06.615Z,4821.00
2023-05-12T11:29:06.812Z,4742.00
2023-05-12T11:30:07.162Z,4471.00
2023-05-12T11:31:07.531Z,4811.00
2023-05-12T11:32:07.911Z,5044.00
2023-05-12T11:33:08.101Z,4845.00
2023-05-12T11:34:13.159Z,4507.00
2023-05-12T11:35:09.496Z,4495.00
2023-05-12T11:36:08.842Z,4753.00
2023-05-12T11:37:09.228Z,4291.00
2023-05-12T11:38:09.421Z,4563.00
2023-05-12T11:39:09.733Z,4220.00
2023-05-12T11:40:10.099Z,4357.00
2023-05-12T11:41:10.337Z,4402.00
2023-05-12T11:42:13.509Z,4162.00
2023-05-12T11:43:10.833Z,4150.00
2023-05-12T11:44:11.183Z,3944.00
2023-05-12T11:45:11.886Z,3852.00
2023-05-12T11:46:11.828Z,3919.00
2023-05-12T11:47:12.078Z,4278.00
2023-05-12T11:48:12.675Z,3755.00
2023-05-12T11:49:12.651Z,4805.00
2023-05-12T11:50:13.006Z,3890.00
2023-05-12T11:51:13.298Z,4954.00
2023-05-12T11:52:13.448Z,4005.00
2023-05-12T11:53:13.860Z,5275.00
2023-05-12T11:54:14.084Z,3514.00
2023-05-12T11:55:14.411Z,3757.00
2023-05-12T11:56:14.735Z,4883.00
2023-05-12T11:57:15.026Z,3569.00
2023-05-12T11:58:15.221Z,3672.00
2023-05-12T11:59:15.514Z,3557.00
2023-05-12T12:00:15.767Z,3645.00
2023-05-12T12:01:16.057Z,3697.00
2023-05-12T12:03:16.794Z,3679.00
2023-05-12T12:04:17.014Z,3883.00
2023-05-12T12:05:17.150Z,3551.00
2023-05-12T12:06:17.646Z,3357.00
2023-05-12T12:07:17.876Z,3739.00
2023-05-12T12:08:18.065Z,4051.00
2023-05-12T12:09:18.217Z,4582.00
2023-05-12T12:10:18.542Z,4195.00
2023-05-12T12:11:18.826Z,4256.00
2023-05-12T12:12:19.170Z,4001.00
2023-05-12T12:13:19.623Z,3788.00
2023-05-12T12:14:19.950Z,3491.00
2023-05-12T12:15:20.382Z,3612.00
2023-05-12T12:16:20.502Z,3561.00
2023-05-12T12:17:20.918Z,3684.00
2023-05-12T12:18:21.330Z,3182.00
2023-05-12T12:19:21.365Z,2986.00
2023-05-12T12:20:21.652Z,2782.00
2023-05-12T12:21:21.992Z,2772.00
2023-05-12T12:22:22.296Z,2900.00
2023-05-12T12:23:22.482Z,2998.00
2023-05-12T12:24:22.817Z,2881.00
2023-05-12T12:25:23.209Z,2849.00
2023-05-12T12:26:23.539Z,3117.00
2023-05-12T12:27:23.606Z,3999.00
2023-05-12T12:28:23.854Z,4541.00
2023-05-12T12:29:24.404Z,4665.00
2023-05-12T12:30:24.414Z,4910.00
2023-05-12T12:31:24.776Z,4645.00
2023-05-12T12:32:25.036Z,4705.00
2023-05-12T12:33:25.292Z,4584.00
2023-05-12T12:34:25.603Z,4482.00
2023-05-12T12:35:25.840Z,3902.00
2023-05-12T12:36:26.050Z,3755.00
2023-05-12T12:37:26.415Z,3616.00
2023-05-12T12:38:26.720Z,3070.00
2023-05-12T12:39:26.971Z,2603.00
2023-05-12T12:40:27.306Z,2020.00
2023-05-12T12:41:27.560Z,2246.00
2023-05-12T12:42:27.741Z,3010.00
2023-05-12T12:43:28.126Z,3686.00